createdAt,value
2018-07-12T00:00:46.062Z,1003.54
2018-07-12T00:01:46.076Z,1003.57
2018-07-12T00:02:46.022Z,1003.56
2018-07-12T00:03:46.015Z,1003.56
2018-07-12T00:04:46.002Z,1003.54
2018-07-12T00:05:46.015Z,1003.54
2018-07-12T00:06:46.020Z,1003.54
2018-07-12T00:07:45.976Z,1003.55
2018-07-12T00:08:45.953Z,1003.55
2018-07-12T00:09:45.952Z,1003.56
2018-07-12T00:10:45.959Z,1003.57
2018-07-12T00:11:45.981Z,1003.59
2018-07-12T00:12:45.926Z,1003.54
2018-07-12T00:13:45.920Z,1003.54
2018-07-12T00:14:46.036Z,1003.53
2018-07-12T00:15:45.893Z,1003.54
2018-07-12T00:16:45.894Z,1003.55
2018-07-12T00:17:45.896Z,1003.50
2018-07-12T00:18:45.885Z,1003.56
2018-07-12T00:19:45.869Z,1003.48
2018-07-12T00:20:45.848Z,1003.53
2018-07-12T00:21:45.855Z,1003.52
2018-07-12T00:22:45.870Z,1003.54
2018-07-12T00:23:46.079Z,1003.51
2018-07-12T00:24:45.889Z,1003.52
2018-07-12T00:25:45.805Z,1003.51
2018-07-12T00:26:45.814Z,1003.44
2018-07-12T00:27:45.800Z,1003.43
2018-07-12T00:28:45.790Z,1003.39
2018-07-12T00:29:45.766Z,1003.39
2018-07-12T00:30:45.915Z,1003.41
2018-07-12T00:31:45.758Z,1003.40
2018-07-12T00:32:45.764Z,1003.44
2018-07-12T00:33:45.800Z,1003.47
2018-07-12T00:34:45.758Z,1003.43
2018-07-12T00:35:45.709Z,1003.42
2018-07-12T00:36:45.772Z,1003.40
2018-07-12T00:37:45.717Z,1003.42
2018-07-12T00:38:45.711Z,1003.42
2018-07-12T00:39:45.681Z,1003.45
2018-07-12T00:40:45.684Z,1003.42
2018-07-12T00:41:45.724Z,1003.44
2018-07-12T00:42:45.656Z,1003.43
2018-07-12T00:43:45.649Z,1003.43
2018-07-12T00:44:45.648Z,1003.44
2018-07-12T00:45:45.638Z,1003.41
2018-07-12T00:46:46.385Z,1003.46
2018-07-12T00:47:45.605Z,1003.43
2018-07-12T00:48:45.733Z,1003.42
2018-07-12T00:49:45.592Z,1003.40
2018-07-12T00:50:45.586Z,1003.43
2018-07-12T00:51:45.614Z,1003.46
2018-07-12T00:52:45.570Z,1003.48
2018-07-12T00:53:45.543Z,1003.48
2018-07-12T00:54:45.538Z,1003.47
2018-07-12T00:55:45.572Z,1003.45
2018-07-12T00:56:45.560Z,1003.44
2018-07-12T00:57:45.539Z,1003.45
2018-07-12T00:58:46.825Z,1003.45
2018-07-12T00:59:45.501Z,1003.41
2018-07-12T01:00:45.500Z,1003.43
2018-07-12T01:01:45.614Z,1003.41
2018-07-12T01:02:45.479Z,1003.48
2018-07-12T01:03:45.457Z,1003.50
2018-07-12T01:04:45.450Z,1003.53
2018-07-12T01:05:45.465Z,1003.55
2018-07-12T01:06:45.459Z,1003.53
2018-07-12T01:07:45.458Z,1003.54
2018-07-12T01:08:45.401Z,1003.52
2018-07-12T01:09:46.386Z,1003.53
2018-07-12T01:10:45.414Z,1003.50
2018-07-12T01:11:45.466Z,1003.52
2018-07-12T01:12:45.381Z,1003.50
2018-07-12T01:13:45.372Z,1003.45
2018-07-12T01:14:45.353Z,1003.48
2018-07-12T01:15:45.359Z,1003.45
2018-07-12T01:16:45.354Z,1003.47
2018-07-12T01:17:45.405Z,1003.45
2018-07-12T01:18:45.327Z,1003.48
2018-07-12T01:19:46.214Z,1003.46
2018-07-12T01:20:45.302Z,1003.44
2018-07-12T01:21:45.299Z,1003.47
2018-07-12T01:22:45.319Z,1003.44
2018-07-12T01:23:45.294Z,1003.43
2018-07-12T01:24:45.266Z,1003.44
2018-07-12T01:25:45.273Z,1003.45
2018-07-12T01:26:45.249Z,1003.45
2018-07-12T01:27:45.246Z,1003.46
2018-07-12T01:28:45.262Z,1003.48
2018-07-12T01:29:45.216Z,1003.46
2018-07-12T01:30:45.194Z,1003.47
2018-07-12T01:31:45.212Z,1003.50
2018-07-12T01:32:45.209Z,1003.50
2018-07-12T01:33:45.219Z,1003.46
2018-07-12T01:34:45.169Z,1003.44
2018-07-12T01:35:45.217Z,1003.47
2018-07-12T01:36:45.160Z,1003.43
2018-07-12T01:37:45.169Z,1003.42
2018-07-12T01:38:45.137Z,1003.42
2018-07-12T01:39:45.122Z,1003.41
2018-07-12T01:40:45.104Z,1003.40
2018-07-12T01:41:45.109Z,1003.41
2018-07-12T01:42:45.083Z,1003.36
2018-07-12T01:43:45.083Z,1003.35
2018-07-12T01:44:45.060Z,1003.36
2018-07-12T01:45:45.071Z,1003.38
2018-07-12T01:46:45.437Z,1003.38
2018-07-12T01:47:45.037Z,1003.39
2018-07-12T01:48:45.052Z,1003.39
2018-07-12T01:49:45.020Z,1003.39
2018-07-12T01:50:45.049Z,1003.41
2018-07-12T01:51:45.054Z,1003.40
2018-07-12T01:52:45.061Z,1003.38
2018-07-12T01:53:45.005Z,1003.40
2018-07-12T01:54:45.059Z,1003.44
2018-07-12T01:55:44.970Z,1003.42
2018-07-12T01:56:45.223Z,1003.43
2018-07-12T01:57:44.942Z,1003.38
2018-07-12T01:58:44.930Z,1003.36
2018-07-12T01:59:44.936Z,1003.36
2018-07-12T02:00:44.939Z,1003.33
2018-07-12T02:01:44.915Z,1003.30
2018-07-12T02:02:44.905Z,1003.31
2018-07-12T02:03:44.889Z,1003.29
2018-07-12T02:04:44.881Z,1003.26
2018-07-12T02:05:44.936Z,1003.28
2018-07-12T02:06:44.880Z,1003.24
2018-07-12T02:07:44.861Z,1003.28
2018-07-12T02:08:45.037Z,1003.27
2018-07-12T02:09:44.843Z,1003.28
2018-07-12T02:10:44.821Z,1003.27
2018-07-12T02:11:44.852Z,1003.29
2018-07-12T02:12:44.804Z,1003.29
2018-07-12T02:13:44.787Z,1003.30
2018-07-12T02:14:44.775Z,1003.31
2018-07-12T02:15:44.774Z,1003.30
2018-07-12T02:16:44.811Z,1003.30
2018-07-12T02:17:44.761Z,1003.31
2018-07-12T02:18:44.756Z,1003.31
2018-07-12T02:19:44.740Z,1003.29
2018-07-12T02:20:44.736Z,1003.33
2018-07-12T02:21:44.791Z,1003.30
2018-07-12T02:22:44.745Z,1003.28
2018-07-12T02:23:45.890Z,1003.31
2018-07-12T02:24:44.692Z,1003.26
2018-07-12T02:25:44.685Z,1003.30
2018-07-12T02:26:44.700Z,1003.28
2018-07-12T02:27:44.669Z,1003.29
2018-07-12T02:28:44.639Z,1003.29
2018-07-12T02:29:44.719Z,1003.26
2018-07-12T02:30:44.629Z,1003.27
2018-07-12T02:31:44.623Z,1003.26
2018-07-12T02:32:44.611Z,1003.25
2018-07-12T02:33:44.597Z,1003.22
2018-07-12T02:34:44.585Z,1003.23
2018-07-12T02:35:44.599Z,1003.24
2018-07-12T02:36:44.585Z,1003.22
2018-07-12T02:37:44.570Z,1003.21
2018-07-12T02:38:44.576Z,1003.25
2018-07-12T02:39:44.532Z,1003.22
2018-07-12T02:40:44.631Z,1003.21
2018-07-12T02:41:44.536Z,1003.21
2018-07-12T02:42:44.512Z,1003.23
2018-07-12T02:43:44.511Z,1003.20
2018-07-12T02:44:44.483Z,1003.19
2018-07-12T02:45:44.560Z,1003.15
2018-07-12T02:46:44.469Z,1003.15
2018-07-12T02:47:44.485Z,1003.17
2018-07-12T02:48:44.457Z,1003.15
2018-07-12T02:49:44.448Z,1003.17
2018-07-12T02:50:44.449Z,1003.19
2018-07-12T02:51:44.472Z,1003.13
2018-07-12T02:52:44.429Z,1003.14
2018-07-12T02:53:44.404Z,1003.08
2018-07-12T02:54:44.396Z,1003.08
2018-07-12T02:55:44.395Z,1003.06
2018-07-12T02:56:44.450Z,1003.10
2018-07-12T02:57:44.356Z,1003.10
2018-07-12T02:58:44.372Z,1003.11
2018-07-12T02:59:44.353Z,1003.15
2018-07-12T03:00:44.337Z,1003.16
2018-07-12T03:01:44.329Z,1003.14
2018-07-12T03:02:44.340Z,1003.12
2018-07-12T03:03:44.313Z,1003.13
2018-07-12T03:04:44.293Z,1003.17
2018-07-12T03:05:44.297Z,1003.17
2018-07-12T03:06:44.277Z,1003.14
2018-07-12T03:07:44.931Z,1003.18
2018-07-12T03:08:44.264Z,1003.16
2018-07-12T03:09:44.267Z,1003.17
2018-07-12T03:10:44.253Z,1003.22
2018-07-12T03:11:44.264Z,1003.26
2018-07-12T03:12:44.224Z,1003.29
2018-07-12T03:13:44.254Z,1003.28
2018-07-12T03:14:44.198Z,1003.27
2018-07-12T03:15:44.190Z,1003.27
2018-07-12T03:16:44.171Z,1003.25
2018-07-12T03:17:44.459Z,1003.28
2018-07-12T03:18:45.439Z,1003.27
2018-07-12T03:19:44.149Z,1003.27
2018-07-12T03:20:44.158Z,1003.28
2018-07-12T03:21:44.139Z,1003.29
2018-07-12T03:22:44.112Z,1003.27
2018-07-12T03:23:44.179Z,1003.31
2018-07-12T03:24:44.103Z,1003.29
2018-07-12T03:25:44.098Z,1003.31
2018-07-12T03:26:44.080Z,1003.32
2018-07-12T03:27:44.077Z,1003.28
2018-07-12T03:28:44.085Z,1003.33
2018-07-12T03:29:44.064Z,1003.31
2018-07-12T03:30:44.414Z,1003.31
2018-07-12T03:31:44.036Z,1003.31
2018-07-12T03:32:44.022Z,1003.32
2018-07-12T03:33:44.019Z,1003.30
2018-07-12T03:34:44.021Z,1003.35
2018-07-12T03:35:44.007Z,1003.33
2018-07-12T03:36:44.026Z,1003.30
2018-07-12T03:37:44.049Z,1003.30
2018-07-12T03:38:43.969Z,1003.31
2018-07-12T03:39:43.969Z,1003.28
2018-07-12T03:40:43.946Z,1003.29
2018-07-12T03:41:43.918Z,1003.24
2018-07-12T03:42:43.931Z,1003.24
2018-07-12T03:43:43.952Z,1003.22
2018-07-12T03:44:43.932Z,1003.24
2018-07-12T03:45:43.928Z,1003.24
2018-07-12T03:46:43.879Z,1003.21
2018-07-12T03:47:43.906Z,1003.27
2018-07-12T03:48:43.869Z,1003.27
2018-07-12T03:49:43.857Z,1003.29
2018-07-12T03:50:43.842Z,1003.28
2018-07-12T03:51:43.868Z,1003.30
2018-07-12T03:52:43.858Z,1003.28
2018-07-12T03:53:43.821Z,1003.30
2018-07-12T03:54:43.817Z,1003.34
2018-07-12T03:55:43.851Z,1003.31
2018-07-12T03:56:43.816Z,1003.30
2018-07-12T03:57:43.810Z,1003.32
2018-07-12T03:58:43.773Z,1003.31
2018-07-12T03:59:43.766Z,1003.33
2018-07-12T04:00:43.748Z,1003.35
2018-07-12T04:01:43.738Z,1003.35
2018-07-12T04:02:43.764Z,1003.33
2018-07-12T04:03:43.803Z,1003.36
2018-07-12T04:04:43.726Z,1003.32
2018-07-12T04:05:43.712Z,1003.35
2018-07-12T04:06:43.686Z,1003.36
2018-07-12T04:07:43.710Z,1003.33
2018-07-12T04:08:43.677Z,1003.35
2018-07-12T04:09:43.670Z,1003.37
2018-07-12T04:10:43.641Z,1003.34
2018-07-12T04:11:43.643Z,1003.38
2018-07-12T04:12:43.664Z,1003.38
2018-07-12T04:13:43.619Z,1003.37
2018-07-12T04:14:43.630Z,1003.42
2018-07-12T04:15:43.641Z,1003.35
2018-07-12T04:16:43.594Z,1003.38
2018-07-12T04:17:43.586Z,1003.37
2018-07-12T04:18:43.593Z,1003.36
2018-07-12T04:19:43.604Z,1003.37
2018-07-12T04:20:43.545Z,1003.37
2018-07-12T04:21:43.630Z,1003.37
2018-07-12T04:22:43.555Z,1003.36
2018-07-12T04:23:43.522Z,1003.39
2018-07-12T04:24:43.595Z,1003.37
2018-07-12T04:25:43.515Z,1003.40
2018-07-12T04:26:44.164Z,1003.43
2018-07-12T04:27:43.559Z,1003.43
2018-07-12T04:28:43.899Z,1003.47
2018-07-12T04:29:52.469Z,1003.43
2018-07-12T04:30:43.508Z,1003.44
2018-07-12T04:31:43.441Z,1003.45
2018-07-12T04:32:43.427Z,1003.45
2018-07-12T04:33:43.433Z,1003.46
2018-07-12T04:34:43.446Z,1003.48
2018-07-12T04:35:43.412Z,1003.45
2018-07-12T04:36:43.398Z,1003.49
2018-07-12T04:37:43.437Z,1003.44
2018-07-12T04:38:43.537Z,1003.43
2018-07-12T04:39:43.369Z,1003.46
2018-07-12T04:40:43.352Z,1003.46
2018-07-12T04:41:43.331Z,1003.47
2018-07-12T04:42:43.358Z,1003.51
2018-07-12T04:43:43.323Z,1003.47
2018-07-12T04:44:44.972Z,1003.50
2018-07-12T04:45:43.344Z,1003.48
2018-07-12T04:46:43.310Z,1003.51
2018-07-12T04:47:43.312Z,1003.53
2018-07-12T04:48:43.283Z,1003.54
2018-07-12T04:49:43.298Z,1003.57
2018-07-12T04:50:43.271Z,1003.56
2018-07-12T04:51:43.237Z,1003.58
2018-07-12T04:52:43.272Z,1003.56
2018-07-12T04:53:43.219Z,1003.60
2018-07-12T04:54:43.217Z,1003.60
2018-07-12T04:55:43.232Z,1003.61
2018-07-12T04:56:43.194Z,1003.59
2018-07-12T04:57:43.219Z,1003.61
2018-07-12T04:58:43.175Z,1003.66
2018-07-12T04:59:43.170Z,1003.65
2018-07-12T05:00:43.229Z,1003.63
2018-07-12T05:01:43.142Z,1003.64
2018-07-12T05:02:43.132Z,1003.63
2018-07-12T05:03:43.136Z,1003.65
2018-07-12T05:04:43.113Z,1003.66
2018-07-12T05:05:43.108Z,1003.70
2018-07-12T05:06:43.161Z,1003.69
2018-07-12T05:07:43.094Z,1003.72
2018-07-12T05:08:43.074Z,1003.72
2018-07-12T05:09:43.065Z,1003.72
2018-07-12T05:10:43.061Z,1003.73
2018-07-12T05:11:43.054Z,1003.73
2018-07-12T05:12:43.120Z,1003.72
2018-07-12T05:13:43.015Z,1003.70
2018-07-12T05:14:43.022Z,1003.77
2018-07-12T05:15:43.003Z,1003.74
2018-07-12T05:16:42.997Z,1003.72
2018-07-12T05:17:42.984Z,1003.72
2018-07-12T05:18:43.032Z,1003.75
2018-07-12T05:19:42.974Z,1003.77
2018-07-12T05:20:42.974Z,1003.70
2018-07-12T05:21:42.941Z,1003.71
2018-07-12T05:22:42.948Z,1003.68
2018-07-12T05:23:42.964Z,1003.67
2018-07-12T05:24:42.962Z,1003.70
2018-07-12T05:25:42.925Z,1003.71
2018-07-12T05:26:42.901Z,1003.67
2018-07-12T05:27:42.887Z,1003.69
2018-07-12T05:28:42.868Z,1003.66
2018-07-12T05:29:43.047Z,1003.72
2018-07-12T05:30:42.928Z,1003.71
2018-07-12T05:31:42.877Z,1003.75
2018-07-12T05:32:42.881Z,1003.71
2018-07-12T05:33:42.835Z,1003.72
2018-07-12T05:34:42.821Z,1003.70
2018-07-12T05:35:42.831Z,1003.70
2018-07-12T05:36:42.805Z,1003.73
2018-07-12T05:37:42.813Z,1003.74
2018-07-12T05:38:42.791Z,1003.76
2018-07-12T05:39:42.794Z,1003.75
2018-07-12T05:40:42.784Z,1003.79
2018-07-12T05:41:42.757Z,1003.79
2018-07-12T05:42:42.742Z,1003.79
2018-07-12T05:43:42.739Z,1003.81
2018-07-12T05:44:42.754Z,1003.76
2018-07-12T05:45:42.708Z,1003.80
2018-07-12T05:46:42.723Z,1003.80
2018-07-12T05:47:42.701Z,1003.81
2018-07-12T05:48:42.686Z,1003.84
2018-07-12T05:49:42.674Z,1003.86
2018-07-12T05:50:42.679Z,1003.83
2018-07-12T05:51:42.651Z,1003.84
2018-07-12T05:52:42.660Z,1003.82
2018-07-12T05:53:42.652Z,1003.82
2018-07-12T05:54:42.661Z,1003.83
2018-07-12T05:55:42.608Z,1003.88
2018-07-12T05:56:42.573Z,1003.87
2018-07-12T05:57:42.576Z,1003.89
2018-07-12T05:58:42.565Z,1003.87
2018-07-12T05:59:42.564Z,1003.93
2018-07-12T06:00:42.584Z,1003.89
2018-07-12T06:01:42.591Z,1003.94
2018-07-12T06:02:42.556Z,1003.91
2018-07-12T06:03:42.549Z,1003.88
2018-07-12T06:04:42.528Z,1003.91
2018-07-12T06:05:42.540Z,1003.91
2018-07-12T06:06:42.525Z,1003.96
2018-07-12T06:07:42.520Z,1003.96
2018-07-12T06:08:42.513Z,1003.98
2018-07-12T06:09:42.503Z,1004.00
2018-07-12T06:10:42.525Z,1004.04
2018-07-12T06:11:42.517Z,1004.03
2018-07-12T06:12:42.476Z,1004.03
2018-07-12T06:13:42.428Z,1004.06
2018-07-12T06:14:42.414Z,1004.01
2018-07-12T06:15:42.408Z,1004.02
2018-07-12T06:16:42.440Z,1004.01
2018-07-12T06:17:42.376Z,1004.07
2018-07-12T06:18:42.441Z,1004.07
2018-07-12T06:19:42.399Z,1004.09
2018-07-12T06:20:42.384Z,1004.06
2018-07-12T06:21:42.391Z,1004.07
2018-07-12T06:22:42.378Z,1004.04
2018-07-12T06:23:42.347Z,1004.05
2018-07-12T06:24:42.362Z,1004.07
2018-07-12T06:25:42.375Z,1004.04
2018-07-12T06:26:42.342Z,1004.04
2018-07-12T06:27:42.341Z,1004.03
2018-07-12T06:28:42.336Z,1004.03
2018-07-12T06:29:42.369Z,1004.04
2018-07-12T06:30:42.289Z,1004.04
2018-07-12T06:31:42.281Z,1004.02
2018-07-12T06:32:42.311Z,1004.03
2018-07-12T06:33:42.269Z,1004.02
2018-07-12T06:34:42.295Z,1004.03
2018-07-12T06:35:42.245Z,1004.02
2018-07-12T06:36:42.249Z,1004.04
2018-07-12T06:37:42.235Z,1004.02
2018-07-12T06:38:42.226Z,1004.02
2018-07-12T06:39:42.290Z,1003.99
2018-07-12T06:40:42.203Z,1004.01
2018-07-12T06:41:42.212Z,1004.01
2018-07-12T06:42:42.273Z,1004.01
2018-07-12T06:43:42.179Z,1004.02
2018-07-12T06:44:42.175Z,1004.04
2018-07-12T06:45:42.169Z,1004.03
2018-07-12T06:46:42.159Z,1004.05
2018-07-12T06:47:42.150Z,1004.06
2018-07-12T06:48:42.128Z,1004.09
2018-07-12T06:49:42.130Z,1004.10
2018-07-12T06:50:42.137Z,1004.07
2018-07-12T06:51:42.111Z,1004.16
2018-07-12T06:52:42.214Z,1004.12
2018-07-12T06:53:42.060Z,1004.13
2018-07-12T06:54:42.049Z,1004.15
2018-07-12T06:55:42.034Z,1004.15
2018-07-12T06:56:42.030Z,1004.16
2018-07-12T06:57:42.079Z,1004.16
2018-07-12T06:58:42.048Z,1004.18
2018-07-12T06:59:42.028Z,1004.18
2018-07-12T07:00:42.034Z,1004.16
2018-07-12T07:01:42.028Z,1004.15
2018-07-12T07:02:41.997Z,1004.18
2018-07-12T07:03:42.065Z,1004.17
2018-07-12T07:04:42.002Z,1003.89
2018-07-12T07:05:41.985Z,1004.15
2018-07-12T07:06:41.964Z,1004.15
2018-07-12T07:07:41.955Z,1004.15
2018-07-12T07:08:41.966Z,1004.14
2018-07-12T07:09:42.084Z,1004.17
2018-07-12T07:10:41.954Z,1004.15
2018-07-12T07:11:41.935Z,1004.17
2018-07-12T07:12:41.919Z,1004.16
2018-07-12T07:13:41.912Z,1004.19
2018-07-12T07:14:42.019Z,1004.17
2018-07-12T07:15:41.887Z,1004.18
2018-07-12T07:16:41.883Z,1004.15
2018-07-12T07:17:41.877Z,1004.15
2018-07-12T07:18:41.907Z,1004.20
2018-07-12T07:19:41.878Z,1004.18
2018-07-12T07:20:41.867Z,1004.21
2018-07-12T07:21:41.968Z,1004.18
2018-07-12T07:22:41.833Z,1004.18
2018-07-12T07:23:41.829Z,1004.26
2018-07-12T07:24:41.814Z,1004.26
2018-07-12T07:25:41.874Z,1004.29
2018-07-12T07:26:41.794Z,1004.25
2018-07-12T07:27:41.799Z,1004.27
2018-07-12T07:28:41.772Z,1004.28
2018-07-12T07:29:41.756Z,1004.28
2018-07-12T07:30:41.827Z,1004.32
2018-07-12T07:31:41.745Z,1004.27
2018-07-12T07:32:41.736Z,1004.30
2018-07-12T07:33:41.741Z,1004.33
2018-07-12T07:34:41.737Z,1004.32
2018-07-12T07:35:41.758Z,1004.34
2018-07-12T07:36:41.792Z,1004.32
2018-07-12T07:37:41.694Z,1004.33
2018-07-12T07:38:41.813Z,1004.33
2018-07-12T07:39:41.685Z,1004.30
2018-07-12T07:40:41.676Z,1004.35
2018-07-12T07:41:42.003Z,1004.36
2018-07-12T07:42:41.665Z,1004.35
2018-07-12T07:43:41.657Z,1004.33
2018-07-12T07:44:41.660Z,1004.33
2018-07-12T07:45:41.654Z,1004.28
2018-07-12T07:46:41.616Z,1004.28
2018-07-12T07:47:42.117Z,1004.28
2018-07-12T07:48:41.603Z,1004.30
2018-07-12T07:49:41.596Z,1004.26
2018-07-12T07:50:41.584Z,1004.24
2018-07-12T07:51:41.583Z,1004.22
2018-07-12T07:52:41.637Z,1004.27
2018-07-12T07:53:41.553Z,1004.28
2018-07-12T07:54:41.572Z,1004.25
2018-07-12T07:55:41.540Z,1004.20
2018-07-12T07:56:41.778Z,1004.18
2018-07-12T07:57:41.597Z,1004.23
2018-07-12T07:58:41.512Z,1004.19
2018-07-12T07:59:41.534Z,1004.15
2018-07-12T08:00:41.507Z,1004.20
2018-07-12T08:01:41.490Z,1004.17
2018-07-12T08:02:41.488Z,1004.20
2018-07-12T08:03:41.507Z,1004.19
2018-07-12T08:04:41.467Z,1004.18
2018-07-12T08:05:41.464Z,1004.23
2018-07-12T08:06:41.468Z,1004.21
2018-07-12T08:07:41.449Z,1004.25
2018-07-12T08:08:41.474Z,1004.29
2018-07-12T08:09:41.454Z,1004.28
2018-07-12T08:10:41.420Z,1004.23
2018-07-12T08:11:41.400Z,1004.28
2018-07-12T08:12:41.393Z,1004.31
2018-07-12T08:13:41.408Z,1004.30
2018-07-12T08:14:41.421Z,1004.29
2018-07-12T08:15:41.448Z,1004.29
2018-07-12T08:16:41.387Z,1004.31
2018-07-12T08:17:41.372Z,1004.30
2018-07-12T08:18:41.366Z,1004.34
2018-07-12T08:19:41.360Z,1004.32
2018-07-12T08:20:41.347Z,1004.36
2018-07-12T08:21:41.368Z,1004.32
2018-07-12T08:22:41.322Z,1004.30
2018-07-12T08:23:41.302Z,1004.35
2018-07-12T08:24:41.315Z,1004.36
2018-07-12T08:25:41.314Z,1004.37
2018-07-12T08:26:41.338Z,1004.34
2018-07-12T08:27:41.332Z,1004.30
2018-07-12T08:28:41.447Z,1004.37
2018-07-12T08:29:41.304Z,1004.34
2018-07-12T08:30:41.265Z,1004.33
2018-07-12T08:31:41.244Z,1004.32
2018-07-12T08:32:41.282Z,1004.34
2018-07-12T08:33:41.237Z,1004.38
2018-07-12T08:34:41.261Z,1004.35
2018-07-12T08:35:41.226Z,1004.35
2018-07-12T08:36:41.224Z,1004.34
2018-07-12T08:37:41.297Z,1004.31
2018-07-12T08:38:41.218Z,1004.34
2018-07-12T08:39:41.188Z,1004.34
2018-07-12T08:40:42.069Z,1004.36
2018-07-12T08:41:41.193Z,1004.34
2018-07-12T08:42:41.312Z,1004.38
2018-07-12T08:43:41.213Z,1004.38
2018-07-12T08:44:41.535Z,1004.40
2018-07-12T08:45:41.156Z,1004.40
2018-07-12T08:46:41.162Z,1004.42
2018-07-12T08:47:41.156Z,1004.42
2018-07-12T08:48:41.146Z,1004.37
2018-07-12T08:49:41.136Z,1004.34
2018-07-12T08:50:41.168Z,1004.39
2018-07-12T08:51:41.137Z,1004.39
2018-07-12T08:52:41.116Z,1004.38
2018-07-12T08:53:41.127Z,1004.34
2018-07-12T08:54:41.189Z,1004.35
2018-07-12T08:55:41.453Z,1004.33
2018-07-12T08:56:41.110Z,1004.31
2018-07-12T08:57:41.090Z,1004.36
2018-07-12T08:58:41.117Z,1004.39
2018-07-12T08:59:41.083Z,1004.36
2018-07-12T09:00:41.080Z,1004.37
2018-07-12T09:01:41.074Z,1004.43
2018-07-12T09:02:41.590Z,1004.50
2018-07-12T09:03:41.084Z,1004.43
2018-07-12T09:04:41.064Z,1004.42
2018-07-12T09:05:41.057Z,1004.45
2018-07-12T09:06:41.058Z,1004.47
2018-07-12T09:07:41.074Z,1004.41
2018-07-12T09:08:41.180Z,1004.28
2018-07-12T09:09:41.108Z,1004.46
2018-07-12T09:10:41.065Z,1004.47
2018-07-12T09:11:41.049Z,1004.46
2018-07-12T09:12:41.156Z,1004.51
2018-07-12T09:13:41.048Z,1004.56
2018-07-12T09:14:41.051Z,1004.49
2018-07-12T09:15:41.053Z,1004.51
2018-07-12T09:16:41.045Z,1004.54
2018-07-12T09:17:41.031Z,1004.52
2018-07-12T09:18:41.046Z,1004.55
2018-07-12T09:19:41.058Z,1004.55
2018-07-12T09:20:41.047Z,1004.59
2018-07-12T09:21:41.136Z,1004.60
2018-07-12T09:22:41.162Z,1004.65
2018-07-12T09:23:41.047Z,1004.59
2018-07-12T09:24:41.054Z,1004.67
2018-07-12T09:25:41.057Z,1004.69
2018-07-12T09:26:41.041Z,1004.52
2018-07-12T09:27:41.118Z,1004.69
2018-07-12T09:28:41.051Z,1004.73
2018-07-12T09:29:41.063Z,1004.73
2018-07-12T09:30:41.064Z,1004.76
2018-07-12T09:31:41.051Z,1004.76
2018-07-12T09:32:41.049Z,1004.77
2018-07-12T09:33:41.084Z,1004.74
2018-07-12T09:34:41.069Z,1004.76
2018-07-12T09:35:41.070Z,1004.77
2018-07-12T09:36:41.207Z,1004.76
2018-07-12T09:37:41.069Z,1004.82
2018-07-12T09:38:41.136Z,1004.81
2018-07-12T09:39:41.103Z,1004.83
2018-07-12T09:40:41.092Z,1004.79
2018-07-12T09:41:41.090Z,1004.79
2018-07-12T09:42:41.110Z,1004.79
2018-07-12T09:43:41.093Z,1004.81
2018-07-12T09:44:41.105Z,1004.78
2018-07-12T09:45:41.126Z,1004.75
2018-07-12T09:46:41.094Z,1004.76
2018-07-12T09:47:41.100Z,1004.76
2018-07-12T09:48:41.110Z,1004.81
2018-07-12T09:49:41.120Z,1004.82
2018-07-12T09:50:41.116Z,1004.88
2018-07-12T09:51:41.124Z,1004.83
2018-07-12T09:52:41.130Z,1004.84
2018-07-12T09:53:41.127Z,1004.88
2018-07-12T09:54:41.126Z,1004.82
2018-07-12T09:55:41.217Z,1004.83
2018-07-12T09:56:41.250Z,1004.83
2018-07-12T09:57:41.173Z,1004.83
2018-07-12T09:58:41.149Z,1004.87
2018-07-12T09:59:41.146Z,1004.94
2018-07-12T10:00:41.169Z,1005.01
2018-07-12T10:01:41.167Z,1004.92
2018-07-12T10:02:41.216Z,1004.74
2018-07-12T10:03:41.131Z,1004.70
2018-07-12T10:04:41.225Z,1004.70
2018-07-12T10:05:41.430Z,1004.64
2018-07-12T10:06:41.833Z,1004.96
2018-07-12T10:07:41.170Z,1004.95
2018-07-12T10:08:41.148Z,1004.62
2018-07-12T10:09:46.001Z,1004.93
2018-07-12T10:10:41.157Z,1004.60
2018-07-12T10:11:41.158Z,1004.60
2018-07-12T10:12:41.162Z,1004.61
2018-07-12T10:13:41.170Z,1004.65
2018-07-12T10:14:41.171Z,1004.76
2018-07-12T10:15:41.171Z,1004.92
2018-07-12T10:16:41.168Z,1004.91
2018-07-12T10:17:41.197Z,1004.92
2018-07-12T10:18:41.411Z,1004.70
2018-07-12T10:19:41.225Z,1004.61
2018-07-12T10:20:41.185Z,1004.54
2018-07-12T10:21:41.183Z,1004.93
2018-07-12T10:22:41.190Z,1004.99
2018-07-12T10:23:41.190Z,1005.02
2018-07-12T10:24:41.178Z,1004.98
2018-07-12T10:25:41.195Z,1004.91
2018-07-12T10:26:41.191Z,1004.97
2018-07-12T10:27:41.227Z,1004.62
2018-07-12T10:28:41.204Z,1004.65
2018-07-12T10:29:41.204Z,1004.66
2018-07-12T10:30:41.196Z,1004.66
2018-07-12T10:31:43.332Z,1004.86
2018-07-12T10:32:41.239Z,1005.04
2018-07-12T10:33:43.922Z,1005.03
2018-07-12T10:34:41.208Z,1005.09
2018-07-12T10:35:41.229Z,1005.09
2018-07-12T10:36:41.225Z,1004.69
2018-07-12T10:37:41.256Z,1004.64
2018-07-12T10:38:41.255Z,1004.61
2018-07-12T10:39:41.229Z,1004.62
2018-07-12T10:40:41.234Z,1004.62
2018-07-12T10:41:41.229Z,1005.37
2018-07-12T10:42:41.294Z,1005.32
2018-07-12T10:43:41.253Z,1005.33
2018-07-12T10:44:41.245Z,1004.67
2018-07-12T10:45:41.240Z,1005.21
2018-07-12T10:46:41.240Z,1005.17
2018-07-12T10:47:41.244Z,1005.22
2018-07-12T10:48:42.154Z,1005.19
2018-07-12T10:49:42.123Z,1005.14
2018-07-12T10:50:41.265Z,1005.43
2018-07-12T10:51:41.259Z,1005.68
2018-07-12T10:52:41.260Z,1005.48
2018-07-12T10:53:41.284Z,1004.97
2018-07-12T10:54:41.285Z,1004.61
2018-07-12T10:55:41.273Z,1005.04
2018-07-12T10:56:41.278Z,1005.08
2018-07-12T10:57:41.310Z,1004.62
2018-07-12T10:58:41.295Z,1004.57
2018-07-12T10:59:41.287Z,1004.57
2018-07-12T11:00:41.296Z,1004.90
2018-07-12T11:01:41.292Z,1005.12
2018-07-12T11:02:41.304Z,1005.19
2018-07-12T11:03:41.300Z,1005.19
2018-07-12T11:04:41.327Z,1005.24
2018-07-12T11:05:41.316Z,1005.20
2018-07-12T11:06:41.391Z,1005.22
2018-07-12T11:07:41.312Z,1004.56
2018-07-12T11:08:41.310Z,1004.46
2018-07-12T11:09:41.345Z,1004.50
2018-07-12T11:10:41.338Z,1004.54
2018-07-12T11:11:42.547Z,1004.51
2018-07-12T11:12:41.361Z,1004.67
2018-07-12T11:13:41.339Z,1004.47
2018-07-12T11:14:41.359Z,1004.49
2018-07-12T11:15:41.362Z,1004.51
2018-07-12T11:16:41.346Z,1004.48
2018-07-12T11:17:41.342Z,1004.46
2018-07-12T11:18:41.343Z,1004.43
2018-07-12T11:19:41.352Z,1004.44
2018-07-12T11:20:41.341Z,1004.41
2018-07-12T11:21:41.349Z,1004.41
2018-07-12T11:22:41.336Z,1004.43
2018-07-12T11:23:41.336Z,1004.40
2018-07-12T11:24:41.349Z,1004.42
2018-07-12T11:25:41.347Z,1004.49
2018-07-12T11:26:41.347Z,1004.47
2018-07-12T11:27:41.351Z,1004.47
2018-07-12T11:28:41.339Z,1004.51
2018-07-12T11:29:41.347Z,1004.56
2018-07-12T11:30:41.356Z,1004.46
2018-07-12T11:31:41.673Z,1004.50
2018-07-12T11:32:41.543Z,1004.47
2018-07-12T11:33:41.457Z,1004.49
2018-07-12T11:34:41.341Z,1004.49
2018-07-12T11:35:41.331Z,1004.46
2018-07-12T11:36:41.331Z,1004.53
2018-07-12T11:37:41.328Z,1004.49
2018-07-12T11:38:41.330Z,1004.45
2018-07-12T11:39:41.675Z,1004.47
2018-07-12T11:40:41.321Z,1004.44
2018-07-12T11:41:41.317Z,1004.46
2018-07-12T11:42:41.320Z,1004.52
2018-07-12T11:43:41.309Z,1004.46
2018-07-12T11:44:41.347Z,1004.48
2018-07-12T11:45:41.315Z,1004.48
2018-07-12T11:46:41.382Z,1004.47
2018-07-12T11:47:41.304Z,1004.51
2018-07-12T11:48:41.290Z,1004.49
2018-07-12T11:49:41.295Z,1004.46
2018-07-12T11:50:41.284Z,1004.50
2018-07-12T11:51:41.283Z,1004.48
2018-07-12T11:52:41.345Z,1004.49
2018-07-12T11:53:41.281Z,1004.47
2018-07-12T11:54:41.266Z,1004.52
2018-07-12T11:55:44.108Z,1004.43
2018-07-12T11:56:41.472Z,1004.46
2018-07-12T11:57:41.321Z,1004.43
2018-07-12T11:58:41.521Z,1004.48
2018-07-12T11:59:41.254Z,1004.46
2018-07-12T12:00:41.247Z,1004.47
2018-07-12T12:01:41.319Z,1004.45
2018-07-12T12:02:41.246Z,1004.44
2018-07-12T12:03:41.276Z,1004.42
2018-07-12T12:04:41.234Z,1004.48
2018-07-12T12:05:41.231Z,1004.46